Terminal Aerodrome Forecast
Issued by NWS Charleston, WV

Current Version | Previous Version | Text Only | Print | Product List | Glossary Off
Versions: 1 2 3 4 5 6 7 8 9 10 11 12 13 14 15 16 17 18 19 20 21 22 23 24 25 26

000
FTUS41 KRLX 230200 AAA
TAFCRW
TAF AMD
KCRW 230258Z 2303/2324 VRB03KT 6SM BR FEW045
     FM230400 00000KT 5SM BR SKC
     FM230600 00000KT 2SM BR SCT001
     FM230800 00000KT 1/4SM FG VV001
     FM231300 00000KT 2SM BR BKN002
     FM231400 00000KT P6SM SCT002
     FM231500 00000KT P6SM SKC=

USA.gov is the U.S. government's official web portal to all federal, state and local government web resources and services.